Welcome!

Visit our other weather sites:

Template documentation
and downloads

And another site



There are no active watches, warnings or advisories

Nearby METAR Reports

   
KAVP - Albrightsville, PA
Updated: Dec 15 2018 10:54 pm
Light Rain, Overcast  
Light Rain, Overcast  
   Wind: NE 10.4 mph
Wind: NE 10.4 mph
Temperature: 42.8°F
Wind Chill: 37.4°F
Dew Point: 33.8°F
Humidity: 71%
Barometer: 30.07 inHg
Clouds: Overcast
Visibility: 10 mi
Cloud details: Few Clouds 1311 m,
Mostly Cloudy 2438 m,
Overcast 2743 m
KAVP 160454Z 05009KT 10SM -RA FEW043 BKN080 OVC090 06/01 A3007 RMK AO2 RAB45 SLP185 P0000 T00560006 400780050
KIWA - Apache Junction, AZ
Updated: Dec 15 2018 10:55 pm
Mostly Cloudy  
Mostly Cloudy  
   Wind: East 9.2 mph
Wind: East 9.2 mph
Temperature: 46.4°F
Wind Chill: 42.8°F
Dew Point: 24.8°F
Humidity: 43%
Barometer: 30.15 inHg
Clouds: Mostly Cloudy
Visibility: 20 mi
Cloud details: Partly Cloudy 4267 m,
Mostly Cloudy 7620 m
KIWA 160455Z 10008KT 20SM SCT140 BKN250 08/M04 A3015
KPKB - Blue Rock, OH
Updated: Dec 15 2018 10:53 pm
Rain, Mist, Overcast  
Rain, Mist, Overcast  
   Wind: North 3.5 mph
Wind: North 3.5 mph
Temperature: 50°F
Wind Chill: 48.2°F
Dew Point: 48.2°F
Humidity: 94%
Barometer: 29.89 inHg
Clouds: Overcast
Visibility: 4 mi
Cloud details: Overcast 274 m
KPKB 160453Z AUTO 01003KT 4SM RA BR OVC009 10/09 A2989 RMK AO2 SLP119 P0012 T01000089 401330094
KHVN - Branford, CT
Updated: Dec 15 2018 10:53 pm
Partly Cloudy  
Partly Cloudy  
   Wind: NE 10.4 mph
Wind: NE 10.4 mph
Temperature: 44.6°F
Wind Chill: 39.2°F
Dew Point: 33.8°F
Humidity: 66%
Barometer: 30.14 inHg
Clouds: Partly Cloudy
Visibility: 10 mi
Cloud details: Partly Cloudy 1676 m
KHVN 160453Z AUTO 04009KT 10SM SCT055 07/01 A3014 RMK AO2 PRESFR SLP205 T00720011 401170072 TSNO
KPHX - Carefree, AZ
Updated: Dec 15 2018 10:51 pm
Partly Cloudy  
Partly Cloudy  
   Wind: South 3.5 mph
Wind: South 3.5 mph
Temperature: 51.8°F
Dew Point: 28.4°F
Humidity: 41%
Barometer: 30.12 inHg
Clouds: Partly Cloudy
Visibility: 10 mi
Cloud details: Few Clouds 3048 m,
Partly Cloudy 5182 m,
Partly Cloudy 7620 m
KPHX 160451Z 19003KT 10SM FEW100 SCT170 SCT250 11/M02 A3012 RMK AO2 SLP195 T01111017
 

Script developed by  Saratoga-weather.org Adapted for the template by  Weerstation Leuven